createdAt,value
2017-05-17T00:00:33.297Z,65.91
2017-05-17T00:01:35.114Z,66.10
2017-05-17T00:02:37.433Z,65.91
2017-05-17T00:03:39.279Z,66.10
2017-05-17T00:04:41.125Z,66.10
2017-05-17T00:05:42.971Z,65.72
2017-05-17T00:06:44.813Z,65.72
2017-05-17T00:07:46.660Z,65.62
2017-05-17T00:08:48.502Z,65.91
2017-05-17T00:09:50.350Z,66.10
2017-05-17T00:10:52.193Z,65.81
2017-05-17T00:11:54.043Z,65.81
2017-05-17T00:12:55.887Z,66.10
2017-05-17T00:13:57.733Z,65.81
2017-05-17T00:14:59.581Z,65.72
2017-05-17T00:16:01.426Z,66.49
2017-05-17T00:17:03.264Z,66.58
2017-05-17T00:18:05.138Z,66.39
2017-05-17T00:19:06.988Z,66.19
2017-05-17T00:20:08.832Z,66.10
2017-05-17T00:21:10.678Z,66.19
2017-05-17T00:22:12.518Z,66.29
2017-05-17T00:23:14.740Z,66.10
2017-05-17T00:24:16.561Z,66.29
2017-05-17T00:25:18.402Z,66.00
2017-05-17T00:26:20.249Z,66.29
2017-05-17T00:27:22.095Z,66.19
2017-05-17T00:28:23.940Z,66.49
2017-05-17T00:29:25.755Z,66.29
2017-05-17T00:30:27.602Z,66.00
2017-05-17T00:31:29.420Z,66.10
2017-05-17T00:32:31.272Z,66.29
2017-05-17T00:33:33.315Z,66.29
2017-05-17T00:34:35.154Z,66.39
2017-05-17T00:35:36.973Z,66.10
2017-05-17T00:36:38.820Z,66.77
2017-05-17T00:37:40.663Z,66.39
2017-05-17T00:38:42.505Z,66.86
2017-05-17T00:39:44.329Z,66.77
2017-05-17T00:40:46.166Z,66.86
2017-05-17T00:41:47.991Z,66.58
2017-05-17T00:42:49.834Z,67.25
2017-05-17T00:43:51.986Z,67.06
2017-05-17T00:44:53.828Z,67.06
2017-05-17T00:45:55.647Z,67.06
2017-05-17T00:46:57.481Z,67.16
2017-05-17T00:47:59.303Z,67.25
2017-05-17T00:49:01.171Z,67.92
2017-05-17T00:50:02.987Z,67.54
2017-05-17T00:51:04.810Z,67.54
2017-05-17T00:52:06.662Z,67.44
2017-05-17T00:53:08.503Z,67.25
2017-05-17T00:54:10.696Z,67.25
2017-05-17T00:55:12.538Z,67.92
2017-05-17T00:56:14.383Z,68.12
2017-05-17T00:57:16.207Z,67.83
2017-05-17T00:58:18.048Z,67.63
2017-05-17T00:59:19.994Z,67.73
2017-05-17T01:00:21.844Z,67.92
2017-05-17T01:01:23.688Z,68.12
2017-05-17T01:02:25.533Z,67.92
2017-05-17T01:03:27.358Z,68.21
2017-05-17T01:04:40.608Z,68.12
2017-05-17T01:05:42.432Z,68.08
2017-05-17T01:06:44.274Z,68.18
2017-05-17T01:07:46.111Z,68.50
2017-05-17T01:08:47.932Z,68.85
2017-05-17T01:09:49.776Z,68.75
2017-05-17T01:10:51.616Z,68.98
2017-05-17T01:11:53.431Z,68.79
2017-05-17T01:12:55.253Z,69.04
2017-05-17T01:13:57.066Z,68.88
2017-05-17T01:14:59.284Z,69.04
2017-05-17T01:16:01.106Z,69.33
2017-05-17T01:17:02.949Z,69.42
2017-05-17T01:18:04.770Z,69.33
2017-05-17T01:19:06.616Z,69.52
2017-05-17T01:20:08.530Z,69.90
2017-05-17T01:21:10.346Z,69.84
2017-05-17T01:22:12.191Z,69.90
2017-05-17T01:23:14.040Z,69.93
2017-05-17T01:24:15.877Z,69.74
2017-05-17T01:25:17.946Z,69.71
2017-05-17T01:26:19.787Z,69.90
2017-05-17T01:27:21.630Z,69.90
2017-05-17T01:28:23.450Z,69.90
2017-05-17T01:29:25.290Z,69.81
2017-05-17T01:30:27.159Z,69.71
2017-05-17T01:31:28.976Z,70.48
2017-05-17T01:32:30.819Z,71.34
2017-05-17T01:33:32.637Z,72.01
2017-05-17T01:34:34.480Z,72.97
2017-05-17T01:35:36.721Z,73.80
2017-05-17T01:36:38.562Z,74.76
2017-05-17T01:37:40.387Z,74.85
2017-05-17T01:38:42.228Z,74.76
2017-05-17T01:39:44.043Z,74.76
2017-05-17T01:40:45.985Z,74.76
2017-05-17T01:41:47.827Z,74.27
2017-05-17T01:42:49.669Z,74.18
2017-05-17T01:43:51.508Z,73.90
2017-05-17T01:44:53.362Z,74.18
2017-05-17T01:45:55.601Z,74.18
2017-05-17T01:46:57.425Z,73.80
2017-05-17T01:47:59.270Z,73.65
2017-05-17T01:49:01.110Z,72.49
2017-05-17T01:50:02.957Z,72.20
2017-05-17T01:51:04.824Z,72.59
2017-05-17T01:52:06.665Z,71.82
2017-05-17T01:53:08.508Z,71.92
2017-05-17T01:54:10.353Z,70.76
2017-05-17T01:55:12.194Z,70.00
2017-05-17T01:56:14.386Z,70.00
2017-05-17T01:57:16.234Z,70.67
2017-05-17T01:58:18.070Z,70.76
2017-05-17T01:59:19.919Z,69.81
2017-05-17T02:00:21.734Z,69.62
2017-05-17T02:01:23.653Z,69.81
2017-05-17T02:02:25.471Z,70.09
2017-05-17T02:03:27.310Z,68.46
2017-05-17T02:04:29.132Z,67.89
2017-05-17T02:05:30.977Z,68.08
2017-05-17T02:06:33.021Z,68.18
2017-05-17T02:07:34.865Z,67.02
2017-05-17T02:08:36.704Z,66.74
2017-05-17T02:09:38.523Z,66.74
2017-05-17T02:10:40.341Z,66.16
2017-05-17T02:11:42.186Z,65.88
2017-05-17T02:12:44.027Z,65.59
2017-05-17T02:13:45.877Z,64.92
2017-05-17T02:14:47.690Z,65.11
2017-05-17T02:15:49.536Z,65.20
2017-05-17T02:16:51.678Z,65.14
2017-05-17T02:17:53.516Z,65.30
2017-05-17T02:18:55.339Z,65.30
2017-05-17T02:19:57.178Z,65.39
2017-05-17T02:20:59.019Z,65.39
2017-05-17T02:22:00.965Z,64.63
2017-05-17T02:23:02.810Z,63.57
2017-05-17T02:24:04.652Z,62.71
2017-05-17T02:25:06.489Z,63.38
2017-05-17T02:26:08.312Z,63.51
2017-05-17T02:27:10.553Z,62.84
2017-05-17T02:28:12.373Z,62.45
2017-05-17T02:29:14.217Z,63.51
2017-05-17T02:30:16.058Z,63.99
2017-05-17T02:31:17.879Z,65.01
2017-05-17T02:32:19.714Z,65.39
2017-05-17T02:33:21.532Z,66.06
2017-05-17T02:34:23.350Z,66.06
2017-05-17T02:35:25.186Z,66.16
2017-05-17T02:36:27.028Z,65.39
2017-05-17T02:37:29.042Z,65.30
2017-05-17T02:38:30.888Z,65.52
2017-05-17T02:39:32.731Z,64.76
2017-05-17T02:40:34.578Z,64.85
2017-05-17T02:41:36.417Z,65.05
2017-05-17T02:42:38.387Z,64.56
2017-05-17T02:43:40.231Z,64.18
2017-05-17T02:44:42.073Z,63.70
2017-05-17T02:45:43.915Z,63.22
2017-05-17T02:46:45.759Z,63.51
2017-05-17T02:47:48.005Z,62.74
2017-05-17T02:48:49.854Z,62.26
2017-05-17T02:49:51.700Z,61.98
2017-05-17T02:50:53.537Z,61.78
2017-05-17T02:51:55.382Z,61.88
2017-05-17T02:52:57.250Z,61.98
2017-05-17T02:53:59.096Z,61.98
2017-05-17T02:55:00.939Z,61.59
2017-05-17T02:56:02.758Z,61.59
2017-05-17T02:57:04.577Z,61.46
2017-05-17T02:58:06.719Z,61.37
2017-05-17T02:59:08.539Z,61.46
2017-05-17T03:00:10.389Z,61.85
2017-05-17T03:01:12.229Z,62.62
2017-05-17T03:02:14.073Z,62.81
2017-05-17T03:03:15.994Z,62.90
2017-05-17T03:04:17.844Z,63.00
2017-05-17T03:05:19.685Z,62.71
2017-05-17T03:06:21.531Z,62.81
2017-05-17T03:07:23.358Z,62.62
2017-05-17T03:08:25.601Z,62.33
2017-05-17T03:09:27.420Z,62.33
2017-05-17T03:10:29.273Z,62.52
2017-05-17T03:11:31.123Z,62.23
2017-05-17T03:12:32.969Z,61.94
2017-05-17T03:13:34.811Z,62.42
2017-05-17T03:14:36.659Z,61.85
2017-05-17T03:15:38.507Z,61.46
2017-05-17T03:16:40.330Z,61.27
2017-05-17T03:17:42.178Z,61.18
2017-05-17T03:18:44.373Z,61.46
2017-05-17T03:19:46.190Z,60.60
2017-05-17T03:20:48.014Z,60.50
2017-05-17T03:21:49.860Z,60.22
2017-05-17T03:22:51.698Z,59.83
2017-05-17T03:23:53.621Z,59.83
2017-05-17T03:24:55.466Z,59.64
2017-05-17T03:25:57.287Z,58.97
2017-05-17T03:26:59.116Z,58.78
2017-05-17T03:28:00.949Z,58.81
2017-05-17T03:29:03.192Z,58.23
2017-05-17T03:30:04.999Z,58.11
2017-05-17T03:31:06.837Z,57.95
2017-05-17T03:32:08.667Z,58.49
2017-05-17T03:33:10.512Z,57.95
2017-05-17T03:34:12.385Z,58.33
2017-05-17T03:35:14.228Z,57.85
2017-05-17T03:36:16.077Z,56.98
2017-05-17T03:37:17.901Z,56.63
2017-05-17T03:38:19.757Z,55.96
2017-05-17T03:39:21.798Z,55.32
2017-05-17T03:40:23.635Z,54.93
2017-05-17T03:41:25.479Z,55.02
2017-05-17T03:42:27.330Z,55.12
2017-05-17T03:43:29.179Z,55.51
2017-05-17T03:44:31.130Z,55.60
2017-05-17T03:45:32.977Z,55.89
2017-05-17T03:46:34.803Z,56.27
2017-05-17T03:47:36.649Z,56.46
2017-05-17T03:48:38.475Z,55.89
2017-05-17T03:49:40.603Z,55.89
2017-05-17T03:50:42.451Z,56.27
2017-05-17T03:51:44.305Z,55.99
2017-05-17T03:52:46.148Z,55.29
2017-05-17T03:53:47.977Z,55.77
2017-05-17T03:54:49.822Z,56.15
2017-05-17T03:55:51.647Z,56.34
2017-05-17T03:56:53.462Z,56.82
2017-05-17T03:57:55.325Z,56.85
2017-05-17T03:58:57.149Z,56.73
2017-05-17T03:59:59.364Z,56.82
2017-05-17T04:01:01.192Z,56.85
2017-05-17T04:02:03.041Z,57.23
2017-05-17T04:03:04.869Z,57.23
2017-05-17T04:04:06.720Z,57.04
2017-05-17T04:05:08.560Z,56.66
2017-05-17T04:06:10.392Z,56.85
2017-05-17T04:07:12.237Z,56.76
2017-05-17T04:08:14.085Z,57.04
2017-05-17T04:09:15.910Z,57.43
2017-05-17T04:10:17.758Z,57.33
2017-05-17T04:11:19.607Z,57.33
2017-05-17T04:12:21.455Z,57.55
2017-05-17T04:13:23.303Z,57.45
2017-05-17T04:14:25.136Z,56.37
2017-05-17T04:15:27.358Z,56.37
2017-05-17T04:16:29.185Z,55.79
2017-05-17T04:17:31.007Z,55.89
2017-05-17T04:18:32.858Z,56.40
2017-05-17T04:19:34.708Z,56.68
2017-05-17T04:20:36.628Z,56.49
2017-05-17T04:21:38.465Z,56.49
2017-05-17T04:22:40.269Z,56.95
2017-05-17T04:23:42.098Z,57.52
2017-05-17T04:24:43.922Z,57.14
2017-05-17T04:25:46.068Z,56.95
2017-05-17T04:26:47.891Z,56.56
2017-05-17T04:27:49.716Z,56.95
2017-05-17T04:28:51.540Z,56.85
2017-05-17T04:29:53.367Z,56.95
2017-05-17T04:30:55.417Z,56.21
2017-05-17T04:31:57.263Z,56.21
2017-05-17T04:32:59.092Z,55.91
2017-05-17T04:34:00.939Z,55.15
2017-05-17T04:35:02.763Z,55.27
2017-05-17T04:36:04.719Z,55.56
2017-05-17T04:37:06.539Z,55.37
2017-05-17T04:38:08.362Z,55.18
2017-05-17T04:39:10.192Z,55.01
2017-05-17T04:40:12.037Z,55.20
2017-05-17T04:41:14.062Z,54.82
2017-05-17T04:42:15.887Z,54.53
2017-05-17T04:43:17.736Z,54.82
2017-05-17T04:44:19.586Z,54.43
2017-05-17T04:45:21.438Z,53.98
2017-05-17T04:46:23.315Z,54.08
2017-05-17T04:47:25.164Z,53.78
2017-05-17T04:48:26.987Z,53.81
2017-05-17T04:49:28.811Z,54.10
2017-05-17T04:50:30.640Z,52.27
2017-05-17T04:51:32.513Z,51.41
2017-05-17T04:52:34.369Z,50.47
2017-05-17T04:53:36.189Z,50.09
2017-05-17T04:54:38.015Z,49.15
2017-05-17T04:55:39.847Z,48.08
2017-05-17T04:56:41.799Z,47.44
2017-05-17T04:57:43.629Z,46.78
2017-05-17T04:58:45.457Z,45.72
2017-05-17T04:59:47.311Z,44.85
2017-05-17T05:00:49.139Z,44.85
2017-05-17T05:01:51.012Z,45.04
2017-05-17T05:02:52.876Z,44.95
2017-05-17T05:03:54.721Z,44.20
2017-05-17T05:04:56.556Z,43.43
2017-05-17T05:05:58.410Z,43.45
2017-05-17T05:07:00.260Z,42.48
2017-05-17T05:08:02.119Z,42.21
2017-05-17T05:09:03.976Z,42.02
2017-05-17T05:10:05.824Z,41.85
2017-05-17T05:11:07.658Z,41.00
2017-05-17T05:12:09.617Z,40.63
2017-05-17T05:13:11.468Z,40.07
2017-05-17T05:14:13.319Z,39.49
2017-05-17T05:15:15.149Z,39.11
2017-05-17T05:16:16.979Z,38.35
2017-05-17T05:17:19.052Z,38.15
2017-05-17T05:18:20.879Z,37.96
2017-05-17T05:19:22.733Z,37.69
2017-05-17T05:20:24.593Z,37.77
2017-05-17T05:21:26.447Z,36.41
2017-05-17T05:22:28.327Z,36.78
2017-05-17T05:23:30.146Z,36.88
2017-05-17T05:24:31.974Z,36.68
2017-05-17T05:25:33.830Z,36.88
2017-05-17T05:26:35.651Z,37.17
2017-05-17T05:27:37.530Z,37.07
2017-05-17T05:28:39.360Z,37.07
2017-05-17T05:29:41.217Z,37.46
2017-05-17T05:30:43.067Z,37.85
2017-05-17T05:31:44.919Z,37.73
2017-05-17T05:32:46.871Z,37.82
2017-05-17T05:33:48.724Z,38.02
2017-05-17T05:34:50.548Z,38.00
2017-05-17T05:35:52.369Z,37.04
2017-05-17T05:36:54.201Z,37.21
2017-05-17T05:37:56.053Z,37.87
2017-05-17T05:38:57.883Z,38.45
2017-05-17T05:39:59.713Z,39.29
2017-05-17T05:41:01.568Z,39.37
2017-05-17T05:42:03.387Z,40.24
2017-05-17T05:43:05.415Z,40.82
2017-05-17T05:44:07.272Z,40.80
2017-05-17T05:45:09.119Z,40.99
2017-05-17T05:46:10.946Z,41.57
2017-05-17T05:47:12.801Z,42.05
2017-05-17T05:48:14.645Z,42.83
2017-05-17T05:49:16.503Z,43.31
2017-05-17T05:50:18.328Z,43.21
2017-05-17T05:51:20.153Z,43.31
2017-05-17T05:52:21.986Z,43.21
2017-05-17T05:53:23.901Z,43.50
2017-05-17T05:54:25.732Z,43.79
2017-05-17T05:55:27.557Z,43.60
2017-05-17T05:56:29.411Z,43.79
2017-05-17T05:57:31.263Z,43.98
2017-05-17T05:58:33.111Z,44.18
2017-05-17T05:59:34.939Z,44.18
2017-05-17T06:00:36.794Z,44.08
2017-05-17T06:01:38.645Z,44.08
2017-05-17T06:02:40.494Z,43.79
2017-05-17T06:03:42.522Z,43.41
2017-05-17T06:04:44.377Z,43.31
2017-05-17T06:05:46.225Z,43.50
2017-05-17T06:06:48.051Z,43.31
2017-05-17T06:07:49.904Z,43.24
2017-05-17T06:08:51.757Z,43.31
2017-05-17T06:09:53.606Z,42.94
2017-05-17T06:10:55.457Z,42.73
2017-05-17T06:11:57.280Z,43.24
2017-05-17T06:12:59.128Z,43.24
2017-05-17T06:14:01.161Z,43.24
2017-05-17T06:15:03.009Z,43.24
2017-05-17T06:16:04.833Z,43.52
2017-05-17T06:17:06.681Z,43.91
2017-05-17T06:18:08.509Z,44.20
2017-05-17T06:19:10.358Z,44.39
2017-05-17T06:20:12.184Z,44.01
2017-05-17T06:21:14.011Z,44.10
2017-05-17T06:22:15.842Z,43.72
2017-05-17T06:23:17.689Z,43.91
2017-05-17T06:24:19.941Z,43.81
2017-05-17T06:25:21.800Z,43.81
2017-05-17T06:26:23.627Z,43.79
2017-05-17T06:27:25.474Z,43.98
2017-05-17T06:28:27.326Z,44.18
2017-05-17T06:29:29.149Z,44.37
2017-05-17T06:30:31.000Z,45.04
2017-05-17T06:31:32.856Z,45.04
2017-05-17T06:32:34.706Z,45.24
2017-05-17T06:33:36.553Z,45.17
2017-05-17T06:34:38.879Z,45.17
2017-05-17T06:35:40.709Z,44.78
2017-05-17T06:36:42.565Z,44.87
2017-05-17T06:37:44.415Z,44.78
2017-05-17T06:38:46.259Z,44.78
2017-05-17T06:39:48.113Z,44.78
2017-05-17T06:40:49.944Z,44.87
2017-05-17T06:41:51.793Z,44.87
2017-05-17T06:42:53.626Z,44.78
2017-05-17T06:43:55.473Z,44.97
2017-05-17T06:44:57.322Z,45.14
2017-05-17T06:45:59.141Z,45.14
2017-05-17T06:47:00.981Z,45.07
2017-05-17T06:48:02.818Z,45.04
2017-05-17T06:49:04.648Z,44.97
2017-05-17T06:50:06.522Z,45.07
2017-05-17T06:51:08.379Z,44.78
2017-05-17T06:52:10.221Z,44.78
2017-05-17T06:53:12.058Z,44.97
2017-05-17T06:54:13.903Z,44.68
2017-05-17T06:55:16.033Z,44.87
2017-05-17T06:56:17.882Z,44.97
2017-05-17T06:57:19.706Z,44.59
2017-05-17T06:58:21.529Z,44.59
2017-05-17T06:59:23.364Z,44.29
2017-05-17T07:00:25.264Z,44.20
2017-05-17T07:01:27.115Z,44.01
2017-05-17T07:02:28.944Z,44.20
2017-05-17T07:03:30.773Z,44.20
2017-05-17T07:04:32.622Z,44.49
2017-05-17T07:05:34.673Z,44.29
2017-05-17T07:06:36.497Z,44.51
2017-05-17T07:07:38.326Z,45.07
2017-05-17T07:08:40.145Z,44.87
2017-05-17T07:09:41.975Z,44.29
2017-05-17T07:10:43.834Z,44.01
2017-05-17T07:11:45.656Z,44.32
2017-05-17T07:12:47.484Z,44.01
2017-05-17T07:13:49.303Z,43.81
2017-05-17T07:14:51.134Z,43.74
2017-05-17T07:15:53.182Z,43.54
2017-05-17T07:16:55.032Z,43.45
2017-05-17T07:17:56.888Z,43.35
2017-05-17T07:18:58.738Z,43.35
2017-05-17T07:20:00.562Z,43.35
2017-05-17T07:21:02.491Z,43.18
2017-05-17T07:22:04.319Z,42.87
2017-05-17T07:23:06.175Z,42.50
2017-05-17T07:24:08.015Z,42.79
2017-05-17T07:25:09.850Z,42.79
2017-05-17T07:26:11.701Z,42.79
2017-05-17T07:27:13.531Z,42.89
2017-05-17T07:28:15.360Z,42.41
2017-05-17T07:29:17.211Z,41.93
2017-05-17T07:30:19.073Z,42.24
2017-05-17T07:31:21.125Z,42.43
2017-05-17T07:32:22.977Z,41.19
2017-05-17T07:33:24.826Z,40.63
2017-05-17T07:34:26.694Z,40.53
2017-05-17T07:35:28.544Z,40.15
2017-05-17T07:36:30.497Z,39.78
2017-05-17T07:37:32.348Z,39.59
2017-05-17T07:38:34.209Z,39.78
2017-05-17T07:39:36.062Z,39.78
2017-05-17T07:40:37.919Z,39.61
2017-05-17T07:41:39.781Z,39.12
2017-05-17T07:42:41.603Z,38.45
2017-05-17T07:43:43.459Z,38.46
2017-05-17T07:44:45.314Z,38.27
2017-05-17T07:45:47.140Z,38.07
2017-05-17T07:46:49.222Z,37.88
2017-05-17T07:47:51.080Z,37.88
2017-05-17T07:48:52.937Z,37.41
2017-05-17T07:49:54.788Z,36.93
2017-05-17T07:50:56.639Z,36.74
2017-05-17T07:51:58.529Z,36.64
2017-05-17T07:53:00.386Z,36.64
2017-05-17T07:54:02.243Z,35.96
2017-05-17T07:55:04.097Z,35.67
2017-05-17T07:56:05.958Z,35.48
2017-05-17T07:57:08.016Z,36.16
2017-05-17T07:58:09.872Z,36.35
2017-05-17T07:59:11.733Z,36.35
2017-05-17T08:00:13.587Z,35.77
2017-05-17T08:01:15.412Z,36.54
2017-05-17T08:02:17.319Z,35.96
2017-05-17T08:03:19.180Z,36.46
2017-05-17T08:04:21.038Z,36.18
2017-05-17T08:05:22.890Z,36.08
2017-05-17T08:06:24.748Z,35.88
2017-05-17T08:07:27.054Z,35.69
2017-05-17T08:08:28.886Z,35.40
2017-05-17T08:09:30.713Z,35.69
2017-05-17T08:10:32.545Z,35.49
2017-05-17T08:11:34.408Z,35.59
2017-05-17T08:12:36.256Z,35.21
2017-05-17T08:13:38.093Z,34.93
2017-05-17T08:14:39.923Z,34.64
2017-05-17T08:15:41.775Z,34.54
2017-05-17T08:16:43.609Z,34.44
2017-05-17T08:17:45.813Z,34.17
2017-05-17T08:18:47.643Z,34.27
2017-05-17T08:19:49.505Z,34.17
2017-05-17T08:20:51.358Z,34.08
2017-05-17T08:21:53.219Z,33.69
2017-05-17T08:22:55.077Z,33.70
2017-05-17T08:23:56.909Z,33.51
2017-05-17T08:24:58.767Z,33.70
2017-05-17T08:26:00.598Z,33.61
2017-05-17T08:27:02.433Z,33.51
2017-05-17T08:28:04.688Z,33.04
2017-05-17T08:29:06.550Z,32.84
2017-05-17T08:30:08.379Z,32.08
2017-05-17T08:31:10.216Z,32.37
2017-05-17T08:32:12.047Z,31.98
2017-05-17T08:33:13.904Z,32.18
2017-05-17T08:34:15.760Z,31.88
2017-05-17T08:35:17.621Z,31.81
2017-05-17T08:36:19.453Z,31.32
2017-05-17T08:37:21.317Z,31.22
2017-05-17T08:38:23.571Z,30.94
2017-05-17T08:39:25.408Z,30.85
2017-05-17T08:40:27.235Z,30.65
2017-05-17T08:41:29.077Z,30.18
2017-05-17T08:42:30.939Z,30.08
2017-05-17T08:43:32.819Z,30.18
2017-05-17T08:44:34.677Z,30.18
2017-05-17T08:45:36.509Z,30.29
2017-05-17T08:46:38.362Z,30.10
2017-05-17T08:47:40.224Z,30.18
2017-05-17T08:48:42.158Z,29.81
2017-05-17T08:49:44.019Z,29.32
2017-05-17T08:50:45.882Z,29.32
2017-05-17T08:51:47.748Z,29.42
2017-05-17T08:52:49.605Z,29.40
2017-05-17T08:53:51.864Z,29.50
2017-05-17T08:54:53.726Z,29.60
2017-05-17T08:55:55.588Z,29.99
2017-05-17T08:56:57.449Z,29.69
2017-05-17T08:57:59.309Z,29.30
2017-05-17T08:59:01.170Z,29.40
2017-05-17T09:00:03.003Z,29.42
2017-05-17T09:01:04.863Z,29.32
2017-05-17T09:02:06.702Z,28.65
2017-05-17T09:03:08.531Z,28.26
2017-05-17T09:04:10.393Z,28.45
2017-05-17T09:05:12.249Z,28.55
2017-05-17T09:06:14.109Z,28.26
2017-05-17T09:07:15.945Z,28.65
2017-05-17T09:08:17.801Z,28.36
2017-05-17T09:09:19.659Z,28.28
2017-05-17T09:10:21.494Z,28.08
2017-05-17T09:11:23.358Z,27.89
2017-05-17T09:12:25.217Z,27.50
2017-05-17T09:13:27.076Z,27.11
2017-05-17T09:14:28.960Z,27.11
2017-05-17T09:15:30.817Z,27.30
2017-05-17T09:16:32.657Z,27.30
2017-05-17T09:17:34.519Z,27.50
2017-05-17T09:18:36.374Z,27.61
2017-05-17T09:19:38.438Z,27.51
2017-05-17T09:20:40.296Z,27.22
2017-05-17T09:21:42.131Z,27.12
2017-05-17T09:22:43.961Z,26.92
2017-05-17T09:23:45.844Z,27.02
2017-05-17T09:24:47.658Z,26.92
2017-05-17T09:25:49.519Z,27.12
2017-05-17T09:26:51.410Z,27.22
2017-05-17T09:27:53.231Z,27.41
2017-05-17T09:28:55.088Z,27.31
2017-05-17T09:29:57.250Z,27.51
2017-05-17T09:30:59.114Z,27.51
2017-05-17T09:32:00.973Z,27.22
2017-05-17T09:33:02.829Z,27.22
2017-05-17T09:34:04.668Z,27.50
2017-05-17T09:35:06.699Z,27.69
2017-05-17T09:36:08.561Z,28.18
2017-05-17T09:37:10.401Z,28.28
2017-05-17T09:38:12.235Z,28.28
2017-05-17T09:39:14.062Z,27.69
2017-05-17T09:40:16.101Z,27.98
2017-05-17T09:41:17.929Z,27.89
2017-05-17T09:42:19.767Z,27.59
2017-05-17T09:43:21.622Z,27.59
2017-05-17T09:44:23.456Z,27.69
2017-05-17T09:45:25.321Z,28.08
2017-05-17T09:46:27.183Z,27.50
2017-05-17T09:47:29.046Z,27.30
2017-05-17T09:48:30.881Z,27.40
2017-05-17T09:49:32.715Z,27.59
2017-05-17T09:50:34.570Z,27.80
2017-05-17T09:51:36.410Z,26.92
2017-05-17T09:52:38.272Z,26.93
2017-05-17T09:53:40.132Z,26.64
2017-05-17T09:54:41.970Z,26.76
2017-05-17T09:55:43.831Z,26.37
2017-05-17T09:56:45.694Z,26.17
2017-05-17T09:57:47.548Z,25.68
2017-05-17T09:58:49.385Z,25.68
2017-05-17T09:59:51.225Z,26.27
2017-05-17T10:00:53.079Z,26.17
2017-05-17T10:01:54.921Z,26.37
2017-05-17T10:02:56.753Z,26.27
2017-05-17T10:03:58.589Z,25.98
2017-05-17T10:05:00.451Z,26.37
2017-05-17T10:06:02.313Z,26.64
2017-05-17T10:07:04.172Z,26.54
2017-05-17T10:08:06.033Z,26.84
2017-05-17T10:09:07.897Z,26.63
2017-05-17T10:10:09.762Z,26.23
2017-05-17T10:11:11.824Z,26.62
2017-05-17T10:12:13.680Z,27.11
2017-05-17T10:13:15.516Z,27.20
2017-05-17T10:14:17.360Z,27.01
2017-05-17T10:15:19.216Z,27.20
2017-05-17T10:16:21.077Z,27.59
2017-05-17T10:17:22.943Z,27.58
2017-05-17T10:18:24.804Z,27.48
2017-05-17T10:19:26.634Z,27.58
2017-05-17T10:20:28.474Z,27.76
2017-05-17T10:21:30.360Z,28.23
2017-05-17T10:22:32.215Z,28.42
2017-05-17T10:23:34.048Z,28.99
2017-05-17T10:24:35.903Z,29.46
2017-05-17T10:25:37.737Z,30.14
2017-05-17T10:26:39.627Z,30.02
2017-05-17T10:27:41.481Z,30.71
2017-05-17T10:28:43.312Z,31.68
2017-05-17T10:29:45.184Z,32.07
2017-05-17T10:30:47.030Z,32.35
2017-05-17T10:31:48.883Z,32.15
2017-05-17T10:32:50.719Z,31.85
2017-05-17T10:33:52.572Z,31.95
2017-05-17T10:34:54.434Z,32.04
2017-05-17T10:35:56.258Z,32.62
2017-05-17T10:36:58.390Z,32.81
2017-05-17T10:38:00.227Z,33.20
2017-05-17T10:39:02.080Z,33.86
2017-05-17T10:40:03.930Z,34.35
2017-05-17T10:41:05.763Z,35.32
2017-05-17T10:42:07.618Z,35.40
2017-05-17T10:43:09.457Z,35.40
2017-05-17T10:44:11.311Z,35.49
2017-05-17T10:45:13.163Z,35.21
2017-05-17T10:46:14.985Z,35.71
2017-05-17T10:47:16.874Z,35.61
2017-05-17T10:48:18.725Z,35.32
2017-05-17T10:49:20.553Z,35.71
2017-05-17T10:50:22.382Z,35.80
2017-05-17T10:51:24.215Z,35.71
2017-05-17T10:52:26.243Z,35.41
2017-05-17T10:53:28.098Z,35.32
2017-05-17T10:54:29.928Z,34.74
2017-05-17T10:55:31.790Z,34.64
2017-05-17T10:56:33.644Z,34.33
2017-05-17T10:57:35.572Z,35.11
2017-05-17T10:58:37.432Z,35.69
2017-05-17T10:59:39.290Z,36.44
2017-05-17T11:00:41.136Z,36.44
2017-05-17T11:01:42.969Z,36.93
2017-05-17T11:02:44.828Z,36.64
2017-05-17T11:03:46.678Z,36.35
2017-05-17T11:04:48.507Z,36.44
2017-05-17T11:05:50.363Z,36.35
2017-05-17T11:06:52.195Z,36.52
2017-05-17T11:07:54.067Z,36.62
2017-05-17T11:08:55.922Z,37.21
2017-05-17T11:09:57.746Z,37.79
2017-05-17T11:10:59.581Z,37.88
2017-05-17T11:12:01.446Z,37.79
2017-05-17T11:13:03.290Z,37.32
2017-05-17T11:14:05.116Z,37.13
2017-05-17T11:15:06.971Z,36.83
2017-05-17T11:16:08.806Z,36.44
2017-05-17T11:17:10.666Z,36.35
2017-05-17T11:18:12.861Z,36.44
2017-05-17T11:19:14.696Z,36.54
2017-05-17T11:20:16.545Z,36.25
2017-05-17T11:21:18.406Z,36.14
2017-05-17T11:22:20.259Z,36.62
2017-05-17T11:23:22.116Z,36.41
2017-05-17T11:24:23.970Z,36.99
2017-05-17T11:25:26.075Z,37.19
2017-05-17T11:26:27.906Z,37.94
2017-05-17T11:27:29.737Z,37.94
2017-05-17T11:28:31.592Z,38.04
2017-05-17T11:29:33.446Z,38.53
2017-05-17T11:30:35.274Z,38.62
2017-05-17T11:31:37.134Z,38.53
2017-05-17T11:32:38.987Z,38.04
2017-05-17T11:33:40.917Z,38.23
2017-05-17T11:34:42.774Z,38.60
2017-05-17T11:35:44.638Z,38.23
2017-05-17T11:36:46.485Z,38.33
2017-05-17T11:37:48.336Z,39.01
2017-05-17T11:38:50.220Z,38.43
2017-05-17T11:39:52.067Z,38.91
2017-05-17T11:40:53.899Z,38.43
2017-05-17T11:41:55.728Z,39.03
2017-05-17T11:42:57.561Z,38.83
2017-05-17T11:43:59.432Z,39.61
2017-05-17T11:45:01.293Z,39.90
2017-05-17T11:46:03.597Z,40.00
2017-05-17T11:47:05.428Z,40.09
2017-05-17T11:48:07.285Z,40.00
2017-05-17T11:49:09.137Z,39.82
2017-05-17T11:50:10.993Z,39.62
2017-05-17T11:51:12.850Z,39.24
2017-05-17T11:52:14.680Z,39.14
2017-05-17T11:53:16.531Z,38.68
2017-05-17T11:54:18.388Z,38.09
2017-05-17T11:55:20.214Z,38.19
2017-05-17T11:56:22.182Z,38.12
2017-05-17T11:57:24.109Z,38.02
2017-05-17T11:58:25.957Z,38.21
2017-05-17T11:59:27.809Z,38.12
2017-05-17T12:00:29.642Z,38.21
2017-05-17T12:01:31.605Z,38.21
2017-05-17T12:02:33.457Z,39.18
2017-05-17T12:03:35.319Z,39.95
2017-05-17T12:04:37.259Z,38.89
2017-05-17T12:05:39.186Z,38.68
2017-05-17T12:06:41.033Z,38.48
2017-05-17T12:07:42.863Z,39.06
2017-05-17T12:08:44.720Z,39.62
2017-05-17T12:09:46.947Z,39.92
2017-05-17T12:10:48.799Z,40.11
2017-05-17T12:11:50.629Z,40.21
2017-05-17T12:12:52.460Z,40.50
2017-05-17T12:13:54.327Z,40.01
2017-05-17T12:14:56.196Z,39.62
2017-05-17T12:15:58.057Z,39.72
2017-05-17T12:16:59.905Z,40.11
2017-05-17T12:18:01.764Z,39.53
2017-05-17T12:19:03.617Z,38.95
2017-05-17T12:20:05.474Z,39.53
2017-05-17T12:21:07.328Z,39.34
2017-05-17T12:22:09.177Z,39.34
2017-05-17T12:23:11.009Z,39.72
2017-05-17T12:24:12.867Z,39.84
2017-05-17T12:25:14.720Z,39.84
2017-05-17T12:26:16.572Z,39.65
2017-05-17T12:27:18.409Z,40.25
2017-05-17T12:28:20.262Z,39.57
2017-05-17T12:29:22.111Z,38.99
2017-05-17T12:30:23.993Z,38.79
2017-05-17T12:31:25.823Z,38.40
2017-05-17T12:32:27.676Z,38.02
2017-05-17T12:33:29.690Z,37.82
2017-05-17T12:34:31.561Z,37.35
2017-05-17T12:35:33.408Z,37.24
2017-05-17T12:36:35.245Z,36.85
2017-05-17T12:37:37.096Z,36.66
2017-05-17T12:38:38.957Z,37.24
2017-05-17T12:39:40.807Z,37.82
2017-05-17T12:40:42.662Z,37.73
2017-05-17T12:41:44.491Z,38.21
2017-05-17T12:42:46.318Z,38.31
2017-05-17T12:43:48.146Z,38.79
2017-05-17T12:44:49.973Z,39.18
2017-05-17T12:45:51.914Z,39.18
2017-05-17T12:46:53.808Z,39.86
2017-05-17T12:47:55.638Z,39.37
2017-05-17T12:48:57.528Z,38.70
2017-05-17T12:49:59.359Z,38.52
2017-05-17T12:51:01.244Z,38.13
2017-05-17T12:52:03.228Z,38.13
2017-05-17T12:53:05.071Z,37.84
2017-05-17T12:54:06.897Z,37.18
2017-05-17T12:55:08.732Z,36.79
2017-05-17T12:56:10.557Z,36.99
2017-05-17T12:57:12.415Z,36.69
2017-05-17T12:58:14.294Z,36.50
2017-05-17T12:59:16.162Z,36.69
2017-05-17T13:00:18.020Z,36.40
2017-05-17T13:01:19.875Z,36.11
2017-05-17T13:02:21.730Z,36.99
2017-05-17T13:03:23.589Z,36.89
2017-05-17T13:04:25.425Z,36.79
2017-05-17T13:05:27.278Z,37.28
2017-05-17T13:06:29.194Z,36.99
2017-05-17T13:07:31.045Z,36.89
2017-05-17T13:08:32.909Z,36.30
2017-05-17T13:09:34.728Z,36.21
2017-05-17T13:10:36.565Z,35.72
2017-05-17T13:11:38.413Z,35.64
2017-05-17T13:12:40.276Z,35.16
2017-05-17T13:13:42.132Z,35.33
2017-05-17T13:14:43.967Z,35.33
2017-05-17T13:15:45.792Z,35.82
2017-05-17T13:16:47.675Z,36.40